Las Toninas, Argentina
Current Conditions -  °F | °C
As of 9:00 PM on Saturday 22 Nov 2014 (Local Time) from SAZM Reporting Station
Clear Clear  
Wind Chill: 63°   Ceiling: Unl
Heat Index: 63°   Visibility: 5mi
Dew Point: 55°   Wind: 3mph
Humidity: 77%   Direction: 360°N
Pressure: 29.77"   Gusts: NA
Location:  36.48°S, 56.7°W
Report Text: SAZM 230000Z 36003KT 8000 NSC 17/13 Q1008
Loading
Personal Weather Stations






























Interactive Weather Map New forecast layout! Learn more

10-Day Weather Forecast

Advertisements
Track Severe Weather on mobile